createdAt,value
2018-08-16T00:00:19.780Z,57.34
2018-08-16T00:02:48.795Z,56.28
2018-08-16T00:05:17.842Z,57.42
2018-08-16T00:07:47.238Z,56.21
2018-08-16T00:10:18.280Z,56.93
2018-08-16T00:12:49.401Z,56.85
2018-08-16T00:15:19.382Z,56.70
2018-08-16T00:17:48.458Z,56.95
2018-08-16T00:20:17.509Z,58.55
2018-08-16T00:22:47.117Z,59.60
2018-08-16T00:25:16.597Z,60.77
2018-08-16T00:27:45.676Z,58.80
2018-08-16T00:30:17.475Z,59.51
2018-08-16T00:32:46.797Z,58.75
2018-08-16T00:35:15.883Z,58.76
2018-08-16T00:37:45.037Z,58.54
2018-08-16T00:40:15.558Z,57.66
2018-08-16T00:42:44.605Z,58.26
2018-08-16T00:45:14.026Z,62.66
2018-08-16T00:47:43.038Z,63.12
2018-08-16T00:50:13.625Z,62.73
2018-08-16T00:52:42.751Z,61.45
2018-08-16T00:55:12.806Z,62.74
2018-08-16T00:57:41.806Z,64.61
2018-08-16T01:00:14.053Z,64.37
2018-08-16T01:02:44.062Z,64.45
2018-08-16T01:05:13.429Z,64.56
2018-08-16T01:07:42.425Z,63.63
2018-08-16T01:10:13.134Z,60.99
2018-08-16T01:12:42.737Z,59.91
2018-08-16T01:15:13.885Z,59.34
2018-08-16T01:17:42.966Z,59.53
2018-08-16T01:20:12.023Z,59.54
2018-08-16T01:22:41.001Z,60.20
2018-08-16T01:25:11.381Z,60.51
2018-08-16T01:27:40.502Z,59.43
2018-08-16T01:30:10.493Z,59.34
2018-08-16T01:32:39.569Z,59.79
2018-08-16T01:35:09.476Z,58.93
2018-08-16T01:37:38.592Z,60.41
2018-08-16T01:40:08.485Z,60.98
2018-08-16T01:42:38.422Z,60.72
2018-08-16T01:45:07.799Z,60.43
2018-08-16T01:47:36.874Z,61.53
2018-08-16T01:50:07.198Z,60.98
2018-08-16T01:52:36.308Z,60.65
2018-08-16T01:55:05.864Z,59.91
2018-08-16T01:57:34.911Z,59.53
2018-08-16T02:00:04.199Z,59.94
2018-08-16T02:02:33.218Z,60.51
2018-08-16T02:05:02.258Z,62.12
2018-08-16T02:07:31.467Z,61.59
2018-08-16T02:10:00.431Z,61.65
2018-08-16T02:12:29.571Z,61.51
2018-08-16T02:14:58.596Z,61.63
2018-08-16T02:17:27.603Z,61.23
2018-08-16T02:19:56.585Z,62.44
2018-08-16T02:22:25.612Z,61.98
2018-08-16T02:24:54.590Z,62.17
2018-08-16T02:27:23.565Z,61.81
2018-08-16T02:29:52.695Z,63.80
2018-08-16T02:32:21.813Z,66.54
2018-08-16T02:34:50.840Z,66.24
2018-08-16T02:37:19.890Z,65.59
2018-08-16T02:39:48.858Z,63.87
2018-08-16T02:42:17.911Z,63.84
2018-08-16T02:44:46.939Z,63.48
2018-08-16T02:49:55.538Z,67.93
2018-08-16T02:52:24.596Z,66.55
2018-08-16T02:54:53.556Z,66.46
2018-08-16T02:57:22.583Z,66.13
2018-08-16T02:59:51.577Z,67.84
2018-08-16T03:02:20.515Z,68.10
2018-08-16T03:04:49.541Z,67.55
2018-08-16T03:07:18.510Z,67.78
2018-08-16T03:09:47.559Z,65.55
2018-08-16T03:12:16.558Z,65.43
2018-08-16T03:14:45.645Z,66.59
2018-08-16T03:17:14.652Z,65.72
2018-08-16T03:19:43.673Z,65.18
2018-08-16T03:22:12.730Z,65.38
2018-08-16T03:24:41.742Z,67.23
2018-08-16T03:27:10.789Z,68.30
2018-08-16T03:29:39.750Z,68.93
2018-08-16T03:32:08.701Z,68.79
2018-08-16T03:34:37.719Z,67.76
2018-08-16T03:37:06.798Z,69.25
2018-08-16T03:39:35.781Z,69.41
2018-08-16T03:42:04.752Z,68.76
2018-08-16T03:44:33.911Z,66.31
2018-08-16T03:47:02.882Z,65.88
2018-08-16T03:49:31.882Z,65.91
2018-08-16T03:52:00.837Z,64.97
2018-08-16T03:54:29.900Z,67.26
2018-08-16T03:56:58.972Z,65.29
2018-08-16T03:59:27.950Z,65.63
2018-08-16T04:01:56.921Z,65.17
2018-08-16T04:04:25.930Z,65.41
2018-08-16T04:06:54.891Z,67.38
2018-08-16T04:09:23.951Z,68.48
2018-08-16T04:11:52.892Z,66.92
2018-08-16T04:14:21.900Z,69.10
2018-08-16T04:16:50.896Z,67.71
2018-08-16T04:19:19.857Z,65.85
2018-08-16T04:21:48.903Z,65.15
2018-08-16T04:24:17.991Z,64.51
2018-08-16T04:26:46.961Z,63.83
2018-08-16T04:29:15.975Z,63.62
2018-08-16T04:31:44.970Z,63.34
2018-08-16T04:34:13.942Z,64.67
2018-08-16T04:36:42.948Z,63.86
2018-08-16T04:39:12.001Z,64.62
2018-08-16T04:41:41.089Z,65.08
2018-08-16T04:44:10.119Z,64.69
2018-08-16T04:46:39.113Z,65.16
2018-08-16T04:49:08.177Z,68.04
2018-08-16T04:51:37.339Z,67.76
2018-08-16T04:54:06.336Z,67.31
2018-08-16T04:56:35.294Z,67.25
2018-08-16T04:59:04.345Z,69.03
2018-08-16T05:01:33.342Z,70.06
2018-08-16T05:04:02.432Z,70.54
2018-08-16T05:06:31.420Z,69.00
2018-08-16T05:09:00.425Z,67.75
2018-08-16T05:11:29.491Z,65.57
2018-08-16T05:13:58.545Z,65.73
2018-08-16T05:16:27.622Z,65.83
2018-08-16T05:18:56.652Z,65.91
2018-08-16T05:21:25.634Z,65.63
2018-08-16T05:23:54.735Z,65.51
2018-08-16T05:26:23.774Z,65.06
2018-08-16T05:28:52.847Z,65.23
2018-08-16T05:31:21.854Z,63.51
2018-08-16T05:33:50.885Z,63.62
2018-08-16T05:36:19.879Z,63.74
2018-08-16T05:38:48.884Z,64.51
2018-08-16T05:41:17.885Z,64.90
2018-08-16T05:43:46.949Z,64.57
2018-08-16T05:46:15.921Z,63.58
2018-08-16T05:48:44.942Z,62.90
2018-08-16T05:51:14.118Z,60.89
2018-08-16T05:53:43.076Z,59.74
2018-08-16T05:56:12.106Z,59.60
2018-08-16T05:58:41.434Z,59.08
2018-08-16T06:01:10.455Z,60.66
2018-08-16T06:03:39.409Z,58.67
2018-08-16T06:06:08.521Z,60.27
2018-08-16T06:08:37.483Z,59.99
2018-08-16T06:11:06.565Z,62.10
2018-08-16T06:13:35.589Z,61.75
2018-08-16T06:16:04.707Z,62.31
2018-08-16T06:18:33.754Z,61.11
2018-08-16T06:21:02.753Z,59.60
2018-08-16T06:23:31.761Z,60.29
2018-08-16T06:26:00.845Z,60.92
2018-08-16T06:28:29.903Z,59.99
2018-08-16T06:30:59.050Z,57.32
2018-08-16T06:33:27.965Z,57.69
2018-08-16T06:35:57.054Z,59.60
2018-08-16T06:38:26.037Z,60.01
2018-08-16T06:40:54.994Z,57.68
2018-08-16T06:43:23.918Z,58.96
2018-08-16T06:45:53.045Z,56.65
2018-08-16T06:48:22.030Z,58.43
2018-08-16T06:50:51.333Z,56.55
2018-08-16T06:53:20.606Z,56.01
2018-08-16T06:55:50.100Z,57.26
2018-08-16T06:58:19.849Z,56.29
2018-08-16T07:00:49.444Z,54.08
2018-08-16T07:05:47.642Z,53.58
2018-08-16T07:08:17.430Z,55.11
2018-08-16T07:10:47.027Z,54.50
2018-08-16T07:13:16.626Z,53.32
2018-08-16T07:15:47.029Z,53.11
2018-08-16T07:18:16.444Z,51.79
2018-08-16T07:20:45.872Z,51.43
2018-08-16T07:23:15.198Z,51.13
2018-08-16T07:25:44.537Z,49.28
2018-08-16T07:28:13.818Z,51.65
2018-08-16T07:30:43.394Z,51.04
2018-08-16T07:33:12.684Z,51.12
2018-08-16T07:35:42.876Z,55.01
2018-08-16T07:38:12.146Z,52.30
2018-08-16T07:40:41.358Z,52.75
2018-08-16T07:43:10.686Z,50.69
2018-08-16T07:45:40.101Z,51.08
2018-08-16T07:48:09.598Z,51.52
2018-08-16T07:50:38.890Z,53.60
2018-08-16T07:53:08.167Z,52.69
2018-08-16T07:55:37.498Z,50.62
2018-08-16T07:58:06.842Z,51.03
2018-08-16T08:00:36.895Z,50.04
2018-08-16T08:03:06.228Z,49.78
2018-08-16T08:05:35.546Z,50.17
2018-08-16T08:08:04.863Z,50.13
2018-08-16T08:10:34.232Z,50.17
2018-08-16T08:13:03.455Z,48.77
2018-08-16T08:15:32.995Z,48.43
2018-08-16T08:18:02.361Z,47.83
2018-08-16T08:20:31.709Z,48.51
2018-08-16T08:23:01.046Z,49.88
2018-08-16T08:25:30.486Z,48.06
2018-08-16T08:27:59.759Z,48.89
2018-08-16T08:30:29.014Z,48.02
2018-08-16T08:32:58.446Z,46.76
2018-08-16T08:35:27.525Z,46.91
2018-08-16T08:38:09.758Z,45.44
2018-08-16T08:40:38.770Z,46.61
2018-08-16T08:43:08.306Z,45.99
2018-08-16T08:45:37.559Z,46.18
2018-08-16T08:48:06.766Z,44.90
2018-08-16T08:50:36.255Z,45.40
2018-08-16T08:53:16.744Z,44.45
2018-08-16T08:56:57.918Z,45.11
2018-08-16T08:59:27.290Z,43.58
2018-08-16T09:01:56.566Z,42.89
2018-08-16T09:04:25.833Z,43.34
2018-08-16T09:06:55.467Z,43.49
2018-08-16T09:09:24.763Z,42.84
2018-08-16T09:12:05.084Z,41.42
2018-08-16T09:14:45.407Z,41.07
2018-08-16T09:17:14.599Z,41.97
2018-08-16T09:19:43.882Z,44.02
2018-08-16T09:22:13.101Z,43.41
2018-08-16T09:24:42.377Z,41.24
2018-08-16T09:27:11.597Z,39.68
2018-08-16T09:30:23.545Z,38.17
2018-08-16T09:33:03.812Z,40.46
2018-08-16T09:35:32.997Z,39.98
2018-08-16T09:38:02.202Z,38.96
2018-08-16T09:40:31.775Z,39.01
2018-08-16T09:43:00.969Z,38.82
2018-08-16T09:46:43.702Z,38.60
2018-08-16T09:49:13.354Z,39.93
2018-08-16T09:51:43.811Z,39.40
2018-08-16T09:54:13.283Z,39.64
2018-08-16T09:56:42.958Z,37.52
2018-08-16T09:59:12.275Z,38.44
2018-08-16T10:01:41.838Z,36.57
2018-08-16T10:04:11.362Z,36.80
2018-08-16T10:06:41.498Z,36.77
2018-08-16T10:09:14.981Z,36.02
2018-08-16T10:11:44.785Z,35.56
2018-08-16T10:14:14.142Z,36.63
2018-08-16T10:16:43.519Z,35.29
2018-08-16T10:19:12.805Z,34.33
2018-08-16T10:21:42.254Z,33.87
2018-08-16T10:24:11.606Z,33.56
2018-08-16T10:26:40.854Z,36.42
2018-08-16T10:29:10.715Z,35.41
2018-08-16T10:31:40.054Z,36.95
2018-08-16T10:34:08.970Z,34.26
2018-08-16T10:36:38.268Z,34.68
2018-08-16T10:39:12.447Z,34.02
2018-08-16T10:41:42.637Z,33.88
2018-08-16T10:44:12.481Z,33.51
2018-08-16T10:46:41.934Z,32.47
2018-08-16T10:49:11.186Z,34.54
2018-08-16T10:51:40.628Z,34.87
2018-08-16T10:54:09.865Z,34.60
2018-08-16T10:56:39.198Z,34.58
2018-08-16T10:59:08.507Z,35.77
2018-08-16T11:01:37.814Z,33.71
2018-08-16T11:04:07.825Z,33.96
2018-08-16T11:06:37.522Z,32.29
2018-08-16T11:09:08.802Z,34.88
2018-08-16T11:11:38.682Z,34.23
2018-08-16T11:14:07.972Z,32.47
2018-08-16T11:16:37.325Z,33.66
2018-08-16T11:19:06.659Z,34.35
2018-08-16T11:21:35.999Z,33.64
2018-08-16T11:24:05.340Z,34.88
2018-08-16T11:26:34.605Z,34.37
2018-08-16T11:29:03.891Z,33.50
2018-08-16T11:31:33.263Z,32.91
2018-08-16T11:34:02.491Z,32.22
2018-08-16T11:36:31.764Z,32.41
2018-08-16T11:39:01.008Z,31.60
2018-08-16T11:41:30.141Z,32.94
2018-08-16T11:43:59.402Z,32.30
2018-08-16T11:46:28.706Z,31.95
2018-08-16T11:48:58.130Z,32.15
2018-08-16T11:51:27.266Z,32.63
2018-08-16T11:53:56.274Z,28.26
2018-08-16T11:56:25.406Z,28.59
2018-08-16T11:58:54.382Z,30.19
2018-08-16T12:01:23.417Z,27.17
2018-08-16T12:03:52.412Z,30.36
2018-08-16T12:06:21.657Z,30.23
2018-08-16T12:08:50.609Z,28.96
2018-08-16T12:11:19.930Z,28.40
2018-08-16T12:13:49.389Z,27.78
2018-08-16T12:16:18.654Z,28.30
2018-08-16T12:18:53.957Z,30.12
2018-08-16T12:21:23.256Z,30.05
2018-08-16T12:23:52.535Z,30.58
2018-08-16T12:26:21.870Z,30.50
2018-08-16T12:28:51.345Z,29.20
2018-08-16T12:31:20.725Z,27.28
2018-08-16T12:33:49.710Z,26.66
2018-08-16T12:36:19.002Z,28.33
2018-08-16T12:38:48.308Z,28.97
2018-08-16T12:41:17.631Z,28.78
2018-08-16T12:43:47.174Z,27.46
2018-08-16T12:46:17.277Z,26.46
2018-08-16T12:48:46.794Z,28.95
2018-08-16T12:51:16.705Z,28.86
2018-08-16T12:53:45.975Z,28.30
2018-08-16T12:56:15.238Z,26.71
2018-08-16T12:58:44.565Z,26.82
2018-08-16T13:01:13.882Z,23.12
2018-08-16T13:03:43.168Z,22.84
2018-08-16T13:06:12.414Z,23.61
2018-08-16T13:08:41.514Z,28.00
2018-08-16T13:11:10.630Z,28.49
2018-08-16T13:13:40.122Z,28.93
2018-08-16T13:16:09.454Z,26.12
2018-08-16T13:18:38.418Z,28.43
2018-08-16T13:21:07.694Z,25.13
2018-08-16T13:23:36.950Z,26.54
2018-08-16T13:26:06.008Z,22.88
2018-08-16T13:28:35.392Z,24.80
2018-08-16T13:31:05.758Z,23.16
2018-08-16T13:33:35.105Z,21.61
2018-08-16T13:36:04.470Z,25.58
2018-08-16T13:38:33.667Z,27.57
2018-08-16T13:41:03.262Z,27.57
2018-08-16T13:43:32.466Z,24.07
2018-08-16T13:46:01.777Z,26.27
2018-08-16T13:48:31.141Z,23.12
2018-08-16T13:51:00.577Z,21.83
2018-08-16T13:53:29.901Z,22.37
2018-08-16T13:55:59.333Z,21.19
2018-08-16T13:58:28.414Z,22.81
2018-08-16T14:00:57.447Z,22.79
2018-08-16T14:03:26.432Z,26.30
2018-08-16T14:05:55.474Z,21.99
2018-08-16T14:08:24.882Z,20.88
2018-08-16T14:10:54.781Z,25.18
2018-08-16T14:13:24.317Z,26.11
2018-08-16T14:15:53.738Z,26.14
2018-08-16T14:18:22.762Z,27.51
2018-08-16T14:20:52.089Z,26.35
2018-08-16T14:23:21.335Z,25.99
2018-08-16T14:25:50.594Z,26.12
2018-08-16T14:28:19.778Z,27.04
2018-08-16T14:30:48.996Z,26.11
2018-08-16T14:33:18.310Z,25.56
2018-08-16T14:35:47.890Z,21.34
2018-08-16T14:38:17.209Z,20.15
2018-08-16T14:40:46.676Z,22.61
2018-08-16T14:43:15.970Z,25.84
2018-08-16T14:45:45.313Z,25.19
2018-08-16T14:48:14.249Z,26.62
2018-08-16T14:50:43.346Z,27.64
2018-08-16T14:53:12.297Z,26.35
2018-08-16T14:55:41.397Z,25.08
2018-08-16T14:58:10.406Z,25.82
2018-08-16T15:00:39.389Z,22.14
2018-08-16T15:03:08.369Z,18.42
2018-08-16T15:05:37.490Z,25.06
2018-08-16T15:08:06.494Z,27.38
2018-08-16T15:10:35.530Z,26.03
2018-08-16T15:13:04.735Z,26.31
2018-08-16T15:15:33.970Z,26.41
2018-08-16T15:18:03.320Z,21.94
2018-08-16T15:20:32.674Z,22.41
2018-08-16T15:23:01.918Z,24.48
2018-08-16T15:25:31.279Z,19.33
2018-08-16T15:28:00.609Z,22.09
2018-08-16T15:30:30.142Z,18.79
2018-08-16T15:32:59.187Z,23.64
2018-08-16T15:35:28.313Z,21.38
2018-08-16T15:37:57.375Z,24.14
2018-08-16T15:40:26.502Z,25.59
2018-08-16T15:42:55.469Z,26.28
2018-08-16T15:45:24.540Z,25.92
2018-08-16T15:47:53.510Z,26.79
2018-08-16T15:50:22.624Z,27.01
2018-08-16T15:52:51.663Z,27.94
2018-08-16T15:55:21.211Z,27.52
2018-08-16T15:57:50.259Z,26.25
2018-08-16T16:00:19.880Z,26.22
2018-08-16T16:02:49.484Z,26.70
2018-08-16T16:05:18.743Z,26.46
2018-08-16T16:07:48.170Z,26.68
2018-08-16T16:10:17.203Z,27.11
2018-08-16T16:12:46.184Z,26.64
2018-08-16T16:15:15.282Z,26.66
2018-08-16T16:17:44.405Z,24.20
2018-08-16T16:20:13.640Z,22.54
2018-08-16T16:22:42.624Z,23.39
2018-08-16T16:25:11.598Z,24.85
2018-08-16T16:27:40.682Z,24.48
2018-08-16T16:30:10.882Z,24.92
2018-08-16T16:32:40.122Z,25.78
2018-08-16T16:35:09.422Z,26.81
2018-08-16T16:37:38.489Z,27.25
2018-08-16T16:40:09.101Z,27.48
2018-08-16T16:42:38.504Z,27.50
2018-08-16T16:45:07.838Z,27.21
2018-08-16T16:47:36.824Z,25.84
2018-08-16T16:50:06.377Z,27.85
2018-08-16T16:52:35.575Z,27.76
2018-08-16T16:55:04.961Z,27.65
2018-08-16T16:57:34.298Z,27.31
2018-08-16T17:00:03.381Z,27.47
2018-08-16T17:02:32.386Z,27.48
2018-08-16T17:05:01.374Z,27.16
2018-08-16T17:07:30.338Z,27.62
2018-08-16T17:09:59.445Z,27.49
2018-08-16T17:12:28.593Z,27.78
2018-08-16T17:14:57.634Z,27.61
2018-08-16T17:17:26.647Z,25.52
2018-08-16T17:19:55.609Z,27.43
2018-08-16T17:22:24.622Z,28.18
2018-08-16T17:24:53.645Z,26.52
2018-08-16T17:27:22.618Z,27.14
2018-08-16T17:29:51.650Z,27.68
2018-08-16T17:32:20.667Z,26.98
2018-08-16T17:34:49.745Z,27.14
2018-08-16T17:37:18.690Z,27.73
2018-08-16T17:39:47.766Z,27.61
2018-08-16T17:42:16.718Z,28.92
2018-08-16T17:44:45.786Z,28.87
2018-08-16T17:47:14.749Z,29.98
2018-08-16T17:49:43.721Z,32.21
2018-08-16T17:52:12.681Z,33.14
2018-08-16T17:54:41.705Z,32.12
2018-08-16T17:57:10.737Z,32.76
2018-08-16T17:59:39.708Z,32.20
2018-08-16T18:02:08.783Z,32.50
2018-08-16T18:04:37.889Z,32.74
2018-08-16T18:07:06.813Z,33.22
2018-08-16T18:09:35.833Z,33.49
2018-08-16T18:12:04.818Z,33.46
2018-08-16T18:14:33.950Z,33.51
2018-08-16T18:17:02.959Z,33.75
2018-08-16T18:19:31.974Z,32.92
2018-08-16T18:22:01.059Z,32.73
2018-08-16T18:24:30.131Z,33.74
2018-08-16T18:26:59.140Z,33.72
2018-08-16T18:29:28.174Z,33.58
2018-08-16T18:31:57.230Z,33.61
2018-08-16T18:34:26.282Z,33.85
2018-08-16T18:36:55.342Z,33.80
2018-08-16T18:39:24.326Z,33.21
2018-08-16T18:41:53.329Z,32.99
2018-08-16T18:44:22.336Z,32.21
2018-08-16T18:46:53.147Z,33.80
2018-08-16T18:49:22.270Z,33.82
2018-08-16T18:51:51.382Z,34.09
2018-08-16T18:54:20.318Z,32.92
2018-08-16T18:56:49.342Z,33.44
2018-08-16T18:59:18.731Z,33.89
2018-08-16T19:01:48.167Z,32.60
2018-08-16T19:04:17.118Z,32.94
2018-08-16T19:06:46.186Z,34.28
2018-08-16T19:09:15.292Z,32.91
2018-08-16T19:11:44.741Z,33.57
2018-08-16T19:14:14.184Z,33.14
2018-08-16T19:16:43.572Z,31.81
2018-08-16T19:19:13.334Z,32.28
2018-08-16T19:21:42.375Z,31.84
2018-08-16T19:24:12.617Z,31.85
2018-08-16T19:26:41.572Z,32.41
2018-08-16T19:29:10.664Z,32.15
2018-08-16T19:31:39.858Z,34.25
2018-08-16T19:34:08.838Z,33.87
2018-08-16T19:36:37.791Z,34.56
2018-08-16T19:39:10.007Z,33.73
2018-08-16T19:41:39.002Z,34.03
2018-08-16T19:44:08.082Z,32.76
2018-08-16T19:46:37.095Z,33.68
2018-08-16T19:49:06.718Z,34.69
2018-08-16T19:51:35.793Z,33.54
2018-08-16T19:54:04.802Z,34.15
2018-08-16T19:56:33.837Z,34.14
2018-08-16T19:59:02.872Z,34.00
2018-08-16T20:01:31.854Z,33.94
2018-08-16T20:04:00.865Z,33.84
2018-08-16T20:06:29.822Z,34.81
2018-08-16T20:08:58.886Z,33.40
2018-08-16T20:11:27.871Z,33.21
2018-08-16T20:13:56.961Z,34.57
2018-08-16T20:16:26.003Z,34.14
2018-08-16T20:18:55.086Z,34.69
2018-08-16T20:21:26.545Z,34.47
2018-08-16T20:23:55.830Z,34.33
2018-08-16T20:26:25.490Z,35.66
2018-08-16T20:28:54.906Z,35.97
2018-08-16T20:31:24.634Z,35.75
2018-08-16T20:33:53.673Z,37.40
2018-08-16T20:36:22.825Z,36.77
2018-08-16T20:38:51.964Z,38.16
2018-08-16T20:41:20.914Z,36.34
2018-08-16T20:43:49.881Z,37.00
2018-08-16T20:46:18.841Z,39.62
2018-08-16T20:48:47.812Z,36.32
2018-08-16T20:51:16.797Z,38.46
2018-08-16T20:53:46.860Z,37.76
2018-08-16T20:56:15.862Z,38.96
2018-08-16T20:58:44.897Z,39.96
2018-08-16T21:01:13.879Z,39.75
2018-08-16T21:03:42.898Z,39.76
2018-08-16T21:06:11.834Z,40.06
2018-08-16T21:08:40.813Z,38.96
2018-08-16T21:11:09.821Z,40.20
2018-08-16T21:13:39.340Z,40.22
2018-08-16T21:16:08.331Z,39.38
2018-08-16T21:18:37.342Z,39.20
2018-08-16T21:21:06.739Z,40.20
2018-08-16T21:23:35.810Z,40.55
2018-08-16T21:26:04.779Z,39.83
2018-08-16T21:28:33.802Z,40.28
2018-08-16T21:31:02.799Z,42.01
2018-08-16T21:33:31.866Z,42.35
2018-08-16T21:36:00.808Z,42.72
2018-08-16T21:38:29.896Z,42.33
2018-08-16T21:40:58.873Z,42.85
2018-08-16T21:43:27.842Z,42.78
2018-08-16T21:45:56.821Z,44.00
2018-08-16T21:48:25.810Z,44.17
2018-08-16T21:50:54.782Z,43.40
2018-08-16T21:53:23.765Z,43.91
2018-08-16T21:55:52.749Z,44.27
2018-08-16T21:58:21.722Z,43.60
2018-08-16T22:00:55.853Z,41.95
2018-08-16T22:03:26.079Z,43.08
2018-08-16T22:06:05.068Z,44.21
2018-08-16T22:08:44.374Z,42.90
2018-08-16T22:11:13.365Z,43.50
2018-08-16T22:13:42.467Z,42.35
2018-08-16T22:16:11.444Z,42.24
2018-08-16T22:18:41.612Z,41.86
2018-08-16T22:21:10.910Z,43.31
2018-08-16T22:23:39.969Z,44.13
2018-08-16T22:26:09.026Z,43.87
2018-08-16T22:28:38.794Z,42.64
2018-08-16T22:31:08.297Z,44.30
2018-08-16T22:33:37.386Z,46.79
2018-08-16T22:36:06.389Z,45.53
2018-08-16T22:38:35.382Z,43.52
2018-08-16T22:41:04.374Z,45.27
2018-08-16T22:43:33.293Z,44.11
2018-08-16T22:46:02.313Z,44.83
2018-08-16T22:48:31.408Z,45.75
2018-08-16T22:51:00.468Z,43.54
2018-08-16T22:53:29.431Z,45.99
2018-08-16T22:55:58.394Z,45.55
2018-08-16T22:58:27.398Z,46.00
2018-08-16T23:00:56.359Z,46.71
2018-08-16T23:03:25.265Z,44.14
2018-08-16T23:05:54.262Z,43.93
2018-08-16T23:08:23.194Z,45.22
2018-08-16T23:10:52.143Z,44.83
2018-08-16T23:13:21.029Z,43.96
2018-08-16T23:15:50.094Z,44.34
2018-08-16T23:18:19.043Z,45.71
2018-08-16T23:20:48.089Z,45.37
2018-08-16T23:23:17.034Z,48.56
2018-08-16T23:25:46.014Z,46.63
2018-08-16T23:28:15.002Z,45.43
2018-08-16T23:30:44.021Z,45.76
2018-08-16T23:33:12.986Z,45.59
2018-08-16T23:35:41.998Z,45.09
2018-08-16T23:38:11.011Z,45.11
2018-08-16T23:40:40.029Z,47.38
2018-08-16T23:43:09.178Z,47.07
2018-08-16T23:45:38.167Z,49.36
2018-08-16T23:48:18.073Z,49.33
2018-08-16T23:50:47.061Z,52.03
2018-08-16T23:53:16.037Z,51.48
2018-08-16T23:55:45.037Z,49.06
2018-08-16T23:58:13.949Z,49.23
